Terminal Aerodrome Forecast
Issued by NWS

Home | Current Version | Previous Version | Text Only | Print | Product List | Glossary On
Versions: 1 2 3 4 5 6 7 8 9 10 11 12 13 14 15 16 17 18 19 20 21 22 23 24 25 26 27
000
FTUS42 KCAE 212100 AAA
TAFDNL
TAF AMD
KDNL 212104Z 2121/2218 27009KT P6SM FEW060
     FM220000 23005KT P6SM SCT060
     FM220800 VRB04KT P6SM BKN045 BKN120
     FM221400 01006KT P6SM BKN045 BKN090=

USA.gov is the U.S. government's official web portal to all federal, state and local government web resources and services.